createdAt,value
2023-05-14T00:01:28.458Z,0.30
2023-05-14T00:03:56.937Z,0.30
2023-05-14T00:06:24.818Z,0.30
2023-05-14T00:08:53.072Z,0.20
2023-05-14T00:11:22.658Z,0.20
2023-05-14T00:13:51.984Z,0.20
2023-05-14T00:16:20.096Z,0.30
2023-05-14T00:18:48.489Z,0.30
2023-05-14T00:21:17.429Z,0.20
2023-05-14T00:23:45.642Z,0.30
2023-05-14T00:26:13.731Z,0.30
2023-05-14T00:28:44.342Z,0.30
2023-05-14T00:31:13.724Z,0.30
2023-05-14T00:33:42.023Z,0.30
2023-05-14T00:36:10.248Z,0.30
2023-05-14T00:38:40.102Z,0.30
2023-05-14T00:41:08.932Z,0.30
2023-05-14T00:43:37.204Z,0.20
2023-05-14T00:46:05.447Z,0.30
2023-05-14T00:48:34.401Z,0.30
2023-05-14T00:51:02.502Z,0.40
2023-05-14T00:53:31.196Z,0.25
2023-05-14T00:55:59.506Z,0.30
2023-05-14T00:58:30.100Z,0.30
2023-05-14T01:00:58.180Z,0.20
2023-05-14T01:03:27.650Z,0.28
2023-05-14T01:06:07.381Z,0.20
2023-05-14T01:09:05.093Z,0.30
2023-05-14T01:11:42.749Z,0.25
2023-05-14T01:14:12.384Z,0.20
2023-05-14T01:16:40.996Z,0.20
2023-05-14T01:19:23.795Z,0.30
2023-05-14T01:21:52.040Z,0.20
2023-05-14T01:24:20.407Z,0.30
2023-05-14T01:26:48.333Z,0.20
2023-05-14T01:29:23.820Z,0.30
2023-05-14T01:31:57.632Z,0.20
2023-05-14T01:34:28.784Z,0.30
2023-05-14T01:36:58.230Z,0.30
2023-05-14T01:39:28.134Z,0.40
2023-05-14T01:41:57.027Z,0.30
2023-05-14T01:44:25.759Z,0.30
2023-05-14T01:46:53.621Z,0.60
2023-05-14T01:49:21.814Z,0.20
2023-05-14T01:51:49.928Z,0.30
2023-05-14T01:54:18.412Z,0.30
2023-05-14T01:56:46.509Z,0.20
2023-05-14T01:59:15.017Z,0.30
2023-05-14T02:01:42.854Z,0.30
2023-05-14T02:04:11.276Z,0.30
2023-05-14T02:06:43.138Z,0.30
2023-05-14T02:09:11.651Z,0.30
2023-05-14T02:11:39.788Z,0.30
2023-05-14T02:14:08.283Z,0.20
2023-05-14T02:16:36.159Z,0.30
2023-05-14T02:19:04.858Z,0.20
2023-05-14T02:21:53.155Z,0.30
2023-05-14T02:24:21.694Z,0.20
2023-05-14T02:26:49.977Z,0.30
2023-05-14T02:29:19.249Z,0.30
2023-05-14T02:31:47.833Z,0.30
2023-05-14T02:34:16.919Z,0.30
2023-05-14T02:36:44.895Z,0.30
2023-05-14T02:39:13.385Z,0.30
2023-05-14T02:41:41.200Z,0.30
2023-05-14T02:44:09.422Z,0.30
2023-05-14T02:46:37.555Z,0.30
2023-05-14T02:49:05.834Z,0.30
2023-05-14T02:51:33.682Z,0.25
2023-05-14T02:54:02.057Z,0.20
2023-05-14T02:56:32.402Z,0.20
2023-05-14T02:59:01.484Z,0.28
2023-05-14T03:01:29.958Z,0.30
2023-05-14T03:03:58.684Z,0.25
2023-05-14T03:06:27.008Z,0.20
2023-05-14T03:08:55.436Z,0.30
2023-05-14T03:11:23.313Z,0.30
2023-05-14T03:13:51.906Z,0.20
2023-05-14T03:16:20.211Z,0.30
2023-05-14T03:18:48.501Z,0.30
2023-05-14T03:21:16.576Z,0.30
2023-05-14T03:23:44.982Z,0.30
2023-05-14T03:26:12.856Z,0.30
2023-05-14T03:28:41.268Z,0.30
2023-05-14T03:31:09.264Z,0.30
2023-05-14T03:33:38.490Z,0.30
2023-05-14T03:36:06.948Z,0.40
2023-05-14T03:38:35.129Z,0.30
2023-05-14T03:41:02.973Z,0.20
2023-05-14T03:43:31.295Z,0.40
2023-05-14T03:45:59.218Z,0.30
2023-05-14T03:48:27.479Z,0.20
2023-05-14T03:50:55.931Z,0.30
2023-05-14T03:53:24.312Z,0.30
2023-05-14T03:55:52.175Z,0.30
2023-05-14T03:58:20.720Z,0.30
2023-05-14T04:00:48.860Z,0.30
2023-05-14T04:03:17.533Z,0.40
2023-05-14T04:05:45.448Z,0.30
2023-05-14T04:08:14.110Z,0.30
2023-05-14T04:10:43.318Z,0.30
2023-05-14T04:13:11.644Z,0.30
2023-05-14T04:15:40.837Z,0.40
2023-05-14T04:18:09.491Z,0.80
2023-05-14T04:20:37.623Z,0.30
2023-05-14T04:23:06.033Z,0.30
2023-05-14T04:25:34.940Z,0.30
2023-05-14T04:28:03.516Z,0.30
2023-05-14T04:30:31.450Z,0.20
2023-05-14T04:33:00.010Z,0.30
2023-05-14T04:35:29.553Z,0.30
2023-05-14T04:37:58.439Z,0.40
2023-05-14T04:40:26.327Z,0.30
2023-05-14T04:42:54.900Z,0.38
2023-05-14T04:45:22.844Z,0.30
2023-05-14T04:47:51.611Z,0.35
2023-05-14T04:50:19.413Z,0.40
2023-05-14T04:52:48.066Z,0.45
2023-05-14T04:55:16.061Z,0.30
2023-05-14T04:57:45.541Z,0.30
2023-05-14T05:00:13.746Z,0.30
2023-05-14T05:02:43.435Z,0.40
2023-05-14T05:05:11.602Z,0.30
2023-05-14T05:07:40.819Z,0.30
2023-05-14T05:10:09.247Z,0.30
2023-05-14T05:12:37.620Z,0.30
2023-05-14T05:15:06.624Z,0.40
2023-05-14T05:17:36.184Z,0.30
2023-05-14T05:20:06.077Z,0.38
2023-05-14T05:22:34.262Z,0.30
2023-05-14T05:25:02.156Z,0.30
2023-05-14T05:27:31.273Z,0.40
2023-05-14T05:29:59.207Z,0.40
2023-05-14T05:32:27.535Z,0.57
2023-05-14T05:34:55.798Z,1.30
2023-05-14T05:37:24.025Z,0.40
2023-05-14T05:39:54.508Z,0.30
2023-05-14T05:42:23.013Z,3.03
2023-05-14T05:44:51.276Z,0.47
2023-05-14T05:47:19.582Z,0.40
2023-05-14T05:49:47.643Z,0.30
2023-05-14T05:52:15.833Z,0.30
2023-05-14T05:54:43.601Z,0.30
2023-05-14T05:57:12.519Z,0.50
2023-05-14T05:59:40.635Z,0.40
2023-05-14T06:02:08.955Z,0.40
2023-05-14T06:04:37.132Z,0.40
2023-05-14T06:07:06.353Z,0.40
2023-05-14T06:09:34.208Z,0.30
2023-05-14T06:12:03.921Z,0.40
2023-05-14T06:14:33.160Z,0.75
2023-05-14T06:17:01.434Z,0.30
2023-05-14T06:19:29.545Z,0.40
2023-05-14T06:21:58.205Z,0.40
2023-05-14T06:24:26.140Z,0.40
2023-05-14T06:26:54.552Z,0.32
2023-05-14T06:29:22.461Z,0.40
2023-05-14T06:31:51.206Z,0.30
2023-05-14T06:34:19.175Z,0.30
2023-05-14T06:36:47.462Z,0.40
2023-05-14T06:39:15.282Z,0.60
2023-05-14T06:41:43.725Z,0.40
2023-05-14T06:44:19.700Z,0.30
2023-05-14T06:46:48.240Z,0.40
2023-05-14T06:49:16.866Z,0.40
2023-05-14T06:51:45.997Z,0.60
2023-05-14T06:54:13.959Z,0.40
2023-05-14T06:56:42.564Z,0.40
2023-05-14T06:59:10.712Z,0.40
2023-05-14T07:01:39.070Z,0.38
2023-05-14T07:04:06.968Z,1.50
2023-05-14T07:06:35.770Z,0.40
2023-05-14T07:09:04.245Z,0.30
2023-05-14T07:11:34.036Z,0.50
2023-05-14T07:14:01.921Z,0.40
2023-05-14T07:16:30.483Z,0.40
2023-05-14T07:18:58.635Z,0.40
2023-05-14T07:21:26.994Z,0.40
2023-05-14T07:23:54.892Z,0.50
2023-05-14T07:26:24.728Z,0.40
2023-05-14T07:28:52.940Z,0.30
2023-05-14T07:31:21.175Z,0.38
2023-05-14T07:33:49.114Z,0.40
2023-05-14T07:36:17.594Z,0.40
2023-05-14T07:38:45.667Z,0.30
2023-05-14T07:41:15.416Z,1.17
2023-05-14T07:43:44.276Z,0.40
2023-05-14T07:46:12.844Z,0.30
2023-05-14T07:48:40.808Z,0.70
2023-05-14T07:51:09.370Z,2.63
2023-05-14T07:53:37.254Z,0.52
2023-05-14T07:56:08.329Z,0.50
2023-05-14T07:58:36.486Z,0.40
2023-05-14T08:01:07.444Z,0.40
2023-05-14T08:03:35.507Z,0.38
2023-05-14T08:06:04.655Z,0.40
2023-05-14T08:08:32.616Z,0.60
2023-05-14T08:11:01.219Z,0.40
2023-05-14T08:13:30.788Z,0.57
2023-05-14T08:15:59.187Z,0.65
2023-05-14T08:18:27.239Z,0.50
2023-05-14T08:20:55.490Z,0.40
2023-05-14T08:23:23.381Z,0.40
2023-05-14T08:25:52.020Z,0.40
2023-05-14T08:28:19.867Z,0.40
2023-05-14T08:30:48.226Z,0.50
2023-05-14T08:33:16.056Z,0.40
2023-05-14T08:35:44.321Z,0.50
2023-05-14T08:38:12.207Z,0.40
2023-05-14T08:40:40.596Z,0.40
2023-05-14T08:43:11.661Z,0.40
2023-05-14T08:45:40.738Z,0.43
2023-05-14T08:48:17.950Z,0.50
2023-05-14T08:50:48.525Z,0.55
2023-05-14T08:53:16.464Z,0.68
2023-05-14T08:55:46.440Z,0.50
2023-05-14T08:58:15.973Z,0.40
2023-05-14T09:00:44.503Z,0.50
2023-05-14T09:03:13.520Z,0.52
2023-05-14T09:05:43.733Z,0.40
2023-05-14T09:08:11.787Z,0.47
2023-05-14T09:10:40.619Z,0.50
2023-05-14T09:13:10.594Z,0.40
2023-05-14T09:15:41.607Z,0.70
2023-05-14T09:18:12.530Z,0.68
2023-05-14T09:20:41.600Z,0.57
2023-05-14T09:23:09.415Z,0.40
2023-05-14T09:25:37.608Z,0.85
2023-05-14T09:28:11.651Z,0.50
2023-05-14T09:30:39.891Z,0.70
2023-05-14T09:33:11.657Z,0.70
2023-05-14T09:35:41.737Z,0.60
2023-05-14T09:38:09.784Z,0.50
2023-05-14T09:40:38.328Z,0.60
2023-05-14T09:43:06.242Z,0.80
2023-05-14T09:45:35.411Z,0.80
2023-05-14T09:48:04.031Z,0.63
2023-05-14T09:50:32.737Z,0.60
2023-05-14T09:53:01.198Z,0.60
2023-05-14T09:55:29.893Z,0.70
2023-05-14T09:57:57.828Z,0.50
2023-05-14T10:00:26.749Z,0.57
2023-05-14T10:02:57.194Z,0.50
2023-05-14T10:05:27.299Z,0.60
2023-05-14T10:08:00.246Z,0.60
2023-05-14T10:10:30.693Z,1.40
2023-05-14T10:13:01.880Z,0.80
2023-05-14T10:15:59.187Z,0.60
2023-05-14T10:21:06.616Z,0.73
2023-05-14T10:23:38.247Z,0.60
2023-05-14T10:26:07.210Z,0.50
2023-05-14T10:28:35.573Z,0.52
2023-05-14T10:31:04.086Z,0.60
2023-05-14T10:33:47.470Z,0.70
2023-05-14T10:36:16.173Z,0.68
2023-05-14T10:38:44.524Z,0.70
2023-05-14T10:41:16.883Z,0.60
2023-05-14T10:43:45.177Z,0.50
2023-05-14T10:46:15.050Z,0.70
2023-05-14T10:48:44.654Z,0.60
2023-05-14T10:51:13.493Z,0.60
2023-05-14T10:53:43.358Z,0.70
2023-05-14T10:56:15.055Z,0.50
2023-05-14T10:58:44.699Z,0.50
2023-05-14T11:01:14.062Z,0.50
2023-05-14T11:03:45.617Z,1.00
2023-05-14T11:06:16.207Z,0.80
2023-05-14T11:08:44.974Z,0.70
2023-05-14T11:11:13.331Z,0.70
2023-05-14T11:13:41.945Z,0.68
2023-05-14T11:18:42.221Z,0.70
2023-05-14T11:21:17.794Z,0.55
2023-05-14T11:23:49.188Z,0.60
2023-05-14T11:26:18.810Z,0.60
2023-05-14T11:28:48.202Z,0.50
2023-05-14T11:31:16.549Z,0.63
2023-05-14T11:34:10.339Z,0.70
2023-05-14T11:36:38.584Z,0.60
2023-05-14T11:39:06.459Z,0.60
2023-05-14T11:41:34.637Z,0.60
2023-05-14T11:44:03.873Z,0.73
2023-05-14T11:46:32.199Z,0.70
2023-05-14T11:49:00.140Z,0.70
2023-05-14T11:51:28.414Z,0.60
2023-05-14T11:53:56.338Z,0.60
2023-05-14T11:56:24.647Z,0.57
2023-05-14T11:58:59.048Z,0.60
2023-05-14T12:01:29.053Z,0.90
2023-05-14T12:03:57.386Z,0.80
2023-05-14T12:06:32.456Z,0.80
2023-05-14T12:09:01.780Z,0.90
2023-05-14T12:11:33.496Z,1.00
2023-05-14T12:14:01.750Z,0.70
2023-05-14T12:16:33.940Z,0.50
2023-05-14T12:19:02.846Z,0.60
2023-05-14T12:21:31.742Z,0.70
2023-05-14T12:24:00.447Z,0.90
2023-05-14T12:26:29.105Z,0.52
2023-05-14T12:29:01.622Z,0.60
2023-05-14T12:31:34.797Z,0.60
2023-05-14T12:34:04.555Z,0.80
2023-05-14T12:36:32.973Z,0.70
2023-05-14T12:39:03.886Z,0.52
2023-05-14T12:41:32.717Z,0.50
2023-05-14T12:44:01.084Z,0.55
2023-05-14T12:46:29.730Z,0.50
2023-05-14T12:48:58.224Z,0.60
2023-05-14T12:51:26.712Z,0.70
2023-05-14T12:53:54.652Z,0.47
2023-05-14T12:56:28.009Z,0.60
2023-05-14T12:58:56.704Z,0.60
2023-05-14T13:01:25.099Z,0.65
2023-05-14T13:03:53.262Z,0.60
2023-05-14T13:06:21.607Z,0.70
2023-05-14T13:08:49.432Z,0.55
2023-05-14T13:11:17.575Z,0.60
2023-05-14T13:13:45.777Z,0.70
2023-05-14T13:16:17.093Z,0.80
2023-05-14T13:18:45.149Z,0.52
2023-05-14T13:21:13.576Z,0.60
2023-05-14T13:23:41.345Z,0.82
2023-05-14T13:26:10.040Z,0.68
2023-05-14T13:28:38.135Z,0.63
2023-05-14T13:31:13.308Z,0.73
2023-05-14T13:33:43.338Z,0.60
2023-05-14T13:36:13.812Z,0.60
2023-05-14T13:38:41.747Z,0.50
2023-05-14T13:41:10.211Z,0.60
2023-05-14T13:43:38.365Z,0.70
2023-05-14T13:46:07.083Z,0.50
2023-05-14T13:48:36.474Z,0.60
2023-05-14T13:51:04.704Z,0.50
2023-05-14T13:53:32.793Z,0.60
2023-05-14T13:56:06.805Z,0.50
2023-05-14T13:58:34.756Z,0.80
2023-05-14T14:01:03.434Z,0.55
2023-05-14T14:03:31.324Z,0.73
2023-05-14T14:05:59.624Z,1.20
2023-05-14T14:08:27.509Z,1.00
2023-05-14T14:10:55.887Z,0.63
2023-05-14T14:13:23.710Z,0.60
2023-05-14T14:15:52.081Z,0.60
2023-05-14T14:18:20.046Z,0.50
2023-05-14T14:20:48.490Z,0.88
2023-05-14T14:23:16.542Z,1.10
2023-05-14T14:25:44.773Z,0.50
2023-05-14T14:28:12.676Z,0.75
2023-05-14T14:30:41.365Z,1.00
2023-05-14T14:33:09.274Z,1.20
2023-05-14T14:35:38.010Z,0.50
2023-05-14T14:38:06.091Z,1.50
2023-05-14T14:40:34.978Z,1.00
2023-05-14T14:43:04.455Z,1.00
2023-05-14T14:45:32.760Z,0.90
2023-05-14T14:48:25.536Z,0.50
2023-05-14T14:50:55.103Z,0.60
2023-05-14T14:53:23.437Z,0.70
2023-05-14T14:55:52.479Z,0.45
2023-05-14T14:58:21.476Z,0.40
2023-05-14T15:00:54.705Z,0.60
2023-05-14T15:03:24.120Z,0.80
2023-05-14T15:05:53.848Z,0.50
2023-05-14T15:08:27.060Z,0.70
2023-05-14T15:10:56.657Z,1.20
2023-05-14T15:13:24.930Z,1.50
2023-05-14T15:15:53.219Z,0.90
2023-05-14T15:18:21.345Z,0.93
2023-05-14T15:20:50.004Z,0.63
2023-05-14T15:23:18.015Z,0.47
2023-05-14T15:25:47.331Z,0.40
2023-05-14T15:28:15.096Z,1.27
2023-05-14T15:30:43.480Z,1.50
2023-05-14T15:33:11.740Z,0.90
2023-05-14T15:35:40.130Z,0.70
2023-05-14T15:38:08.620Z,0.60
2023-05-14T15:40:36.792Z,0.70
2023-05-14T15:43:05.261Z,0.50
2023-05-14T15:45:33.671Z,0.60
2023-05-14T15:48:01.663Z,0.40
2023-05-14T15:50:29.995Z,0.60
2023-05-14T15:52:57.983Z,0.50
2023-05-14T15:55:26.203Z,0.40
2023-05-14T15:57:54.308Z,0.70
2023-05-14T16:00:23.009Z,0.50
2023-05-14T16:02:52.434Z,0.55
2023-05-14T16:05:20.873Z,0.40
2023-05-14T16:07:48.835Z,0.40
2023-05-14T16:10:17.006Z,0.40
2023-05-14T16:12:45.073Z,0.40
2023-05-14T16:15:13.366Z,0.60
2023-05-14T16:17:42.077Z,0.80
2023-05-14T16:20:12.227Z,0.50
2023-05-14T16:22:40.179Z,0.60
2023-05-14T16:25:08.748Z,0.50
2023-05-14T16:27:36.731Z,0.50
2023-05-14T16:30:06.206Z,0.30
2023-05-14T16:32:35.526Z,0.60
2023-05-14T16:35:03.793Z,0.70
2023-05-14T16:37:33.842Z,0.60
2023-05-14T16:40:02.616Z,0.40
2023-05-14T16:42:32.804Z,0.50
2023-05-14T16:45:01.494Z,0.40
2023-05-14T16:47:33.575Z,1.25
2023-05-14T16:50:01.914Z,1.40
2023-05-14T16:52:32.099Z,1.17
2023-05-14T16:55:01.117Z,0.50
2023-05-14T16:57:32.839Z,0.90
2023-05-14T17:00:02.369Z,0.70
2023-05-14T17:02:33.665Z,1.10
2023-05-14T17:05:02.130Z,0.50
2023-05-14T17:07:33.673Z,0.70
2023-05-14T17:10:02.112Z,0.50
2023-05-14T17:12:33.222Z,0.40
2023-05-14T17:15:04.490Z,0.77
2023-05-14T17:17:34.381Z,0.60
2023-05-14T17:20:02.777Z,0.63
2023-05-14T17:22:32.518Z,0.50
2023-05-14T17:25:00.831Z,0.60
2023-05-14T17:27:32.110Z,0.50
2023-05-14T17:30:01.558Z,0.60
2023-05-14T17:32:34.394Z,1.00
2023-05-14T17:35:04.248Z,0.70
2023-05-14T17:37:34.420Z,0.52
2023-05-14T17:40:04.849Z,0.50
2023-05-14T17:42:33.992Z,2.45
2023-05-14T17:45:02.366Z,2.00
2023-05-14T17:47:33.497Z,0.73
2023-05-14T17:50:02.168Z,0.60
2023-05-14T17:52:32.537Z,0.52
2023-05-14T17:55:00.777Z,0.50
2023-05-14T17:57:29.682Z,0.77
2023-05-14T17:59:58.172Z,0.50
2023-05-14T18:02:27.874Z,0.80
2023-05-14T18:04:56.483Z,0.75
2023-05-14T18:07:25.727Z,0.70
2023-05-14T18:09:57.028Z,0.90
2023-05-14T18:12:28.181Z,0.90
2023-05-14T18:14:56.500Z,0.70
2023-05-14T18:17:24.533Z,0.65
2023-05-14T18:19:53.091Z,1.00
2023-05-14T18:22:21.878Z,0.80
2023-05-14T18:24:50.157Z,1.02
2023-05-14T18:27:18.140Z,0.70
2023-05-14T18:29:47.028Z,0.80
2023-05-14T18:32:15.117Z,0.90
2023-05-14T18:34:43.784Z,0.80
2023-05-14T18:37:11.691Z,0.70
2023-05-14T18:39:40.269Z,1.20
2023-05-14T18:42:08.436Z,1.08
2023-05-14T18:44:36.802Z,0.90
2023-05-14T18:47:05.183Z,0.90
2023-05-14T18:49:33.372Z,1.05
2023-05-14T18:52:01.413Z,0.95
2023-05-14T18:54:29.733Z,0.85
2023-05-14T18:56:57.714Z,1.00
2023-05-14T18:59:25.997Z,0.77
2023-05-14T19:01:54.091Z,0.73
2023-05-14T19:04:23.079Z,1.20
2023-05-14T19:06:51.017Z,1.08
2023-05-14T19:09:21.439Z,1.40
2023-05-14T19:11:49.921Z,1.40
2023-05-14T19:14:18.378Z,1.80
2023-05-14T19:16:46.315Z,1.90
2023-05-14T19:19:16.253Z,1.80
2023-05-14T19:21:44.182Z,2.10
2023-05-14T19:24:13.782Z,1.90
2023-05-14T19:26:42.285Z,2.30
2023-05-14T19:29:13.164Z,2.10
2023-05-14T19:31:41.241Z,2.17
2023-05-14T19:34:09.446Z,2.05
2023-05-14T19:36:37.326Z,2.10
2023-05-14T19:39:05.685Z,2.15
2023-05-14T19:41:33.473Z,1.90
2023-05-14T19:44:01.745Z,2.22
2023-05-14T19:46:29.912Z,2.50
2023-05-14T19:48:58.341Z,2.20
2023-05-14T19:51:26.246Z,2.47
2023-05-14T19:53:54.560Z,2.75
2023-05-14T19:56:23.538Z,2.83
2023-05-14T19:58:54.877Z,3.20
2023-05-14T20:01:22.912Z,2.65
2023-05-14T20:03:51.121Z,2.72
2023-05-14T20:06:21.154Z,3.30
2023-05-14T20:08:49.719Z,3.20
2023-05-14T20:11:19.758Z,3.10
2023-05-14T20:13:48.370Z,3.33
2023-05-14T20:16:17.141Z,2.92
2023-05-14T20:18:45.536Z,3.05
2023-05-14T20:21:13.638Z,3.42
2023-05-14T20:23:43.044Z,2.97
2023-05-14T20:26:10.955Z,3.17
2023-05-14T20:28:39.277Z,3.05
2023-05-14T20:31:07.248Z,3.50
2023-05-14T20:33:36.789Z,3.20
2023-05-14T20:36:05.646Z,3.53
2023-05-14T20:38:35.300Z,3.70
2023-05-14T20:41:03.312Z,3.50
2023-05-14T20:43:33.557Z,3.50
2023-05-14T20:46:09.325Z,3.95
2023-05-14T20:48:40.559Z,3.75
2023-05-14T20:51:12.112Z,3.60
2023-05-14T20:53:43.597Z,3.63
2023-05-14T20:56:12.666Z,3.88
2023-05-14T20:58:41.490Z,3.60
2023-05-14T21:01:09.879Z,3.53
2023-05-14T21:03:38.245Z,3.60
2023-05-14T21:06:07.481Z,3.45
2023-05-14T21:08:37.972Z,3.33
2023-05-14T21:11:07.152Z,3.25
2023-05-14T21:13:35.294Z,3.25
2023-05-14T21:16:03.326Z,3.53
2023-05-14T21:18:33.343Z,4.10
2023-05-14T21:21:01.429Z,4.07
2023-05-14T21:23:32.960Z,3.58
2023-05-14T21:26:00.969Z,3.20
2023-05-14T21:28:30.085Z,3.22
2023-05-14T21:30:58.004Z,3.63
2023-05-14T21:33:26.248Z,3.60
2023-05-14T21:35:54.563Z,3.25
2023-05-14T21:38:22.981Z,3.10
2023-05-14T21:40:50.829Z,3.20
2023-05-14T21:43:19.685Z,3.40
2023-05-14T21:45:48.739Z,3.47
2023-05-14T21:48:21.773Z,3.25
2023-05-14T21:50:49.867Z,3.60
2023-05-14T21:53:18.302Z,3.08
2023-05-14T21:55:47.199Z,3.38
2023-05-14T21:58:16.479Z,3.78
2023-05-14T22:00:44.265Z,3.10
2023-05-14T22:03:12.643Z,3.13
2023-05-14T22:05:41.192Z,3.47
2023-05-14T22:08:11.572Z,3.40
2023-05-14T22:10:39.963Z,3.42
2023-05-14T22:13:10.176Z,3.40
2023-05-14T22:15:38.649Z,3.97
2023-05-14T22:18:07.131Z,3.55
2023-05-14T22:20:35.140Z,3.38
2023-05-14T22:23:03.426Z,3.20
2023-05-14T22:25:31.721Z,3.50
2023-05-14T22:28:00.097Z,3.72
2023-05-14T22:30:27.957Z,3.35
2023-05-14T22:32:56.260Z,3.63
2023-05-14T22:35:24.444Z,4.10
2023-05-14T22:37:52.890Z,3.20
2023-05-14T22:40:20.942Z,3.50
2023-05-14T22:42:51.957Z,3.47
2023-05-14T22:45:20.204Z,3.58
2023-05-14T22:47:52.044Z,3.40
2023-05-14T22:50:20.108Z,3.70
2023-05-14T22:52:48.321Z,3.47
2023-05-14T22:55:16.240Z,3.33
2023-05-14T22:57:44.634Z,3.50
2023-05-14T23:00:13.550Z,3.55
2023-05-14T23:02:42.025Z,3.88
2023-05-14T23:05:10.341Z,3.65
2023-05-14T23:07:39.055Z,3.75
2023-05-14T23:10:22.488Z,3.67
2023-05-14T23:12:54.926Z,3.60
2023-05-14T23:15:23.075Z,3.85
2023-05-14T23:17:51.615Z,3.95
2023-05-14T23:20:19.541Z,3.47
2023-05-14T23:22:48.170Z,3.95
2023-05-14T23:25:16.121Z,3.60
2023-05-14T23:27:44.315Z,3.70
2023-05-14T23:30:12.654Z,4.20
2023-05-14T23:32:40.908Z,3.45
2023-05-14T23:35:10.694Z,3.58
2023-05-14T23:37:42.886Z,3.38
2023-05-14T23:40:11.370Z,3.45
2023-05-14T23:42:39.538Z,3.53
2023-05-14T23:45:08.023Z,3.72
2023-05-14T23:47:36.600Z,3.20
2023-05-14T23:50:05.070Z,3.22
2023-05-14T23:52:33.908Z,3.63
2023-05-14T23:55:02.013Z,3.25
2023-05-14T23:57:32.452Z,3.40
